sensor_id;sensor_type;location;lat;lon;timestamp;pressure;altitude;pressure_sealevel;temperature;humidity
47670;BME280;33408;52.062;11.722;2023-09-07T00:00:41;101882.34;;;16.30;100.00
47670;BME280;33408;52.062;11.722;2023-09-07T00:03:08;101881.13;;;16.08;100.00
47670;BME280;33408;52.062;11.722;2023-09-07T00:05:35;101887.22;;;16.46;100.00
47670;BME280;33408;52.062;11.722;2023-09-07T00:08:01;101883.88;;;16.39;100.00
47670;BME280;33408;52.062;11.722;2023-09-07T00:10:28;101887.28;;;16.43;100.00
47670;BME280;33408;52.062;11.722;2023-09-07T00:12:55;101881.16;;;16.42;100.00
47670;BME280;33408;52.062;11.722;2023-09-07T00:15:21;101882.25;;;16.33;100.00
47670;BME280;33408;52.062;11.722;2023-09-07T00:17:49;101883.59;;;16.14;100.00
47670;BME280;33408;52.062;11.722;2023-09-07T00:20:16;101882.88;;;16.07;100.00
47670;BME280;33408;52.062;11.722;2023-09-07T00:22:44;101879.13;;;16.19;100.00
47670;BME280;33408;52.062;11.722;2023-09-07T00:25:11;101885.00;;;16.29;100.00
47670;BME280;33408;52.062;11.722;2023-09-07T00:27:38;101874.81;;;16.16;100.00
47670;BME280;33408;52.062;11.722;2023-09-07T00:30:06;101875.53;;;16.23;100.00
47670;BME280;33408;52.062;11.722;2023-09-07T00:32:35;101871.31;;;16.17;100.00
47670;BME280;33408;52.062;11.722;2023-09-07T00:35:04;101872.28;;;16.13;100.00
47670;BME280;33408;52.062;11.722;2023-09-07T00:37:32;101872.31;;;16.12;100.00
47670;BME280;33408;52.062;11.722;2023-09-07T00:39:58;101874.03;;;16.13;100.00
47670;BME280;33408;52.062;11.722;2023-09-07T00:42:25;101875.09;;;16.04;100.00
47670;BME280;33408;52.062;11.722;2023-09-07T00:44:53;101878.59;;;16.03;100.00
47670;BME280;33408;52.062;11.722;2023-09-07T00:47:19;101874.53;;;15.91;100.00
47670;BME280;33408;52.062;11.722;2023-09-07T00:49:46;101873.44;;;16.00;100.00
47670;BME280;33408;52.062;11.722;2023-09-07T00:52:14;101878.66;;;16.00;100.00
47670;BME280;33408;52.062;11.722;2023-09-07T00:54:42;101878.53;;;16.06;100.00
47670;BME280;33408;52.062;11.722;2023-09-07T00:57:08;101872.78;;;15.90;100.00
47670;BME280;33408;52.062;11.722;2023-09-07T00:59:36;101877.09;;;15.93;100.00
47670;BME280;33408;52.062;11.722;2023-09-07T01:02:02;101875.41;;;15.90;100.00
47670;BME280;33408;52.062;11.722;2023-09-07T01:04:30;101872.03;;;15.85;100.00
47670;BME280;33408;52.062;11.722;2023-09-07T01:07:02;101869.34;;;15.88;100.00
47670;BME280;33408;52.062;11.722;2023-09-07T01:09:32;101866.91;;;15.80;100.00
47670;BME280;33408;52.062;11.722;2023-09-07T01:12:02;101869.47;;;15.83;100.00
47670;BME280;33408;52.062;11.722;2023-09-07T01:14:29;101869.31;;;15.90;100.00
47670;BME280;33408;52.062;11.722;2023-09-07T01:16:56;101870.44;;;15.79;100.00
47670;BME280;33408;52.062;11.722;2023-09-07T01:19:22;101866.06;;;15.80;100.00
47670;BME280;33408;52.062;11.722;2023-09-07T01:21:50;101864.47;;;15.71;100.00
47670;BME280;33408;52.062;11.722;2023-09-07T01:24:18;101868.84;;;15.71;100.00
47670;BME280;33408;52.062;11.722;2023-09-07T01:26:44;101872.56;;;15.60;100.00
47670;BME280;33408;52.062;11.722;2023-09-07T01:29:14;101869.88;;;15.63;100.00
47670;BME280;33408;52.062;11.722;2023-09-07T01:31:42;101869.88;;;15.63;100.00
47670;BME280;33408;52.062;11.722;2023-09-07T01:34:09;101874.25;;;15.61;100.00
47670;BME280;33408;52.062;11.722;2023-09-07T01:36:35;101868.16;;;15.62;100.00
47670;BME280;33408;52.062;11.722;2023-09-07T01:39:04;101877.81;;;15.59;100.00
47670;BME280;33408;52.062;11.722;2023-09-07T01:41:31;101875.09;;;15.63;100.00
47670;BME280;33408;52.062;11.722;2023-09-07T01:43:58;101879.53;;;15.58;100.00
47670;BME280;33408;52.062;11.722;2023-09-07T01:46:25;101876.16;;;15.53;100.00
47670;BME280;33408;52.062;11.722;2023-09-07T01:48:51;101877.38;;;15.37;100.00
47670;BME280;33408;52.062;11.722;2023-09-07T01:51:18;101880.88;;;15.36;100.00
47670;BME280;33408;52.062;11.722;2023-09-07T01:53:47;101878.91;;;15.47;100.00
47670;BME280;33408;52.062;11.722;2023-09-07T01:56:15;101875.53;;;15.42;100.00
47670;BME280;33408;52.062;11.722;2023-09-07T01:58:42;101874.78;;;15.37;100.00
47670;BME280;33408;52.062;11.722;2023-09-07T02:01:20;101874.88;;;15.30;100.00
47670;BME280;33408;52.062;11.722;2023-09-07T02:03:46;101880.06;;;15.34;100.00
47670;BME280;33408;52.062;11.722;2023-09-07T02:06:13;101880.97;;;15.31;100.00
47670;BME280;33408;52.062;11.722;2023-09-07T02:08:40;101881.84;;;15.31;100.00
47670;BME280;33408;52.062;11.722;2023-09-07T02:11:06;101879.25;;;15.30;100.00
47670;BME280;33408;52.062;11.722;2023-09-07T02:13:34;101873.19;;;15.29;100.00
47670;BME280;33408;52.062;11.722;2023-09-07T02:16:03;101871.50;;;15.25;100.00
47670;BME280;33408;52.062;11.722;2023-09-07T02:18:31;101876.63;;;15.31;100.00
47670;BME280;33408;52.062;11.722;2023-09-07T02:21:01;101875.09;;;15.20;100.00
47670;BME280;33408;52.062;11.722;2023-09-07T02:23:29;101875.09;;;15.20;100.00
47670;BME280;33408;52.062;11.722;2023-09-07T02:25:55;101870.81;;;15.17;100.00
47670;BME280;33408;52.062;11.722;2023-09-07T02:28:23;101873.63;;;15.05;100.00
47670;BME280;33408;52.062;11.722;2023-09-07T02:30:51;101873.63;;;15.05;100.00
47670;BME280;33408;52.062;11.722;2023-09-07T02:33:18;101873.75;;;14.99;100.00
47670;BME280;33408;52.062;11.722;2023-09-07T02:35:44;101873.69;;;15.02;100.00
47670;BME280;33408;52.062;11.722;2023-09-07T02:38:11;101879.06;;;14.94;100.00
47670;BME280;33408;52.062;11.722;2023-09-07T02:40:40;101873.72;;;15.00;100.00
47670;BME280;33408;52.062;11.722;2023-09-07T02:43:07;101875.63;;;14.92;100.00
47670;BME280;33408;52.062;11.722;2023-09-07T02:45:34;101876.38;;;14.97;100.00
47670;BME280;33408;52.062;11.722;2023-09-07T02:48:02;101876.38;;;14.97;100.00
47670;BME280;33408;52.062;11.722;2023-09-07T02:50:30;101875.56;;;14.95;100.00
47670;BME280;33408;52.062;11.722;2023-09-07T02:52:56;101887.06;;;14.86;100.00
47670;BME280;33408;52.062;11.722;2023-09-07T02:55:23;101878.22;;;14.92;100.00
47670;BME280;33408;52.062;11.722;2023-09-07T02:57:49;101890.63;;;14.81;100.00
47670;BME280;33408;52.062;11.722;2023-09-07T03:00:17;101885.50;;;14.74;100.00
47670;BME280;33408;52.062;11.722;2023-09-07T03:02:43;101888.69;;;14.90;100.00
47670;BME280;33408;52.062;11.722;2023-09-07T03:05:11;101891.31;;;14.90;100.00
47670;BME280;33408;52.062;11.722;2023-09-07T03:07:38;101887.03;;;14.88;100.00
47670;BME280;33408;52.062;11.722;2023-09-07T03:10:06;101886.38;;;14.75;100.00
47670;BME280;33408;52.062;11.722;2023-09-07T03:12:33;101891.59;;;14.75;100.00
47670;BME280;33408;52.062;11.722;2023-09-07T03:15:00;101886.44;;;14.72;100.00
47670;BME280;33408;52.062;11.722;2023-09-07T03:17:29;101890.78;;;14.70;100.00
47670;BME280;33408;52.062;11.722;2023-09-07T03:19:55;101886.38;;;14.75;100.00
47670;BME280;33408;52.062;11.722;2023-09-07T03:22:24;101888.06;;;14.77;100.00
47670;BME280;33408;52.062;11.722;2023-09-07T03:24:51;101891.69;;;14.69;100.00
47670;BME280;33408;52.062;11.722;2023-09-07T03:27:18;101892.69;;;14.58;100.00
47670;BME280;33408;52.062;11.722;2023-09-07T03:29:46;101892.00;;;14.47;100.00
47670;BME280;33408;52.062;11.722;2023-09-07T03:32:12;101893.03;;;14.37;100.00
47670;BME280;33408;52.062;11.722;2023-09-07T03:34:39;101898.00;;;14.54;100.00
47670;BME280;33408;52.062;11.722;2023-09-07T03:37:05;101895.31;;;14.57;100.00
47670;BME280;33408;52.062;11.722;2023-09-07T03:39:37;101890.22;;;14.52;100.00
47670;BME280;33408;52.062;11.722;2023-09-07T03:42:04;101891.84;;;14.58;100.00
47670;BME280;33408;52.062;11.722;2023-09-07T03:44:31;101890.22;;;14.51;100.00
47670;BME280;33408;52.062;11.722;2023-09-07T03:46:57;101898.09;;;14.49;100.00
47670;BME280;33408;52.062;11.722;2023-09-07T03:49:24;101896.66;;;14.28;100.00
47670;BME280;33408;52.062;11.722;2023-09-07T03:51:50;101899.84;;;14.47;100.00
47670;BME280;33408;52.062;11.722;2023-09-07T03:54:17;101896.47;;;14.40;100.00
47670;BME280;33408;52.062;11.722;2023-09-07T03:56:45;101901.75;;;14.36;100.00
47670;BME280;33408;52.062;11.722;2023-09-07T03:59:11;101898.47;;;14.21;100.00
47670;BME280;33408;52.062;11.722;2023-09-07T04:01:38;101909.94;;;14.11;100.00
47670;BME280;33408;52.062;11.722;2023-09-07T04:04:05;101899.72;;;13.96;100.00
47670;BME280;33408;52.062;11.722;2023-09-07T04:06:32;101898.88;;;13.94;100.00
47670;BME280;33408;52.062;11.722;2023-09-07T04:08:58;101889.22;;;14.00;100.00
47670;BME280;33408;52.062;11.722;2023-09-07T04:11:25;101897.22;;;13.90;100.00
47670;BME280;33408;52.062;11.722;2023-09-07T04:13:53;101895.53;;;13.85;100.00
47670;BME280;33408;52.062;11.722;2023-09-07T04:16:20;101891.00;;;13.98;100.00
47670;BME280;33408;52.062;11.722;2023-09-07T04:18:46;101898.03;;;13.93;100.00
47670;BME280;33408;52.062;11.722;2023-09-07T04:21:13;101895.56;;;13.82;100.00
47670;BME280;33408;52.062;11.722;2023-09-07T04:23:39;101891.34;;;13.74;100.00
47670;BME280;33408;52.062;11.722;2023-09-07T04:26:06;101890.31;;;13.85;100.00
47670;BME280;33408;52.062;11.722;2023-09-07T04:28:33;101892.81;;;13.93;100.00
47670;BME280;33408;52.062;11.722;2023-09-07T04:31:02;101889.63;;;13.71;100.00
47670;BME280;33408;52.062;11.722;2023-09-07T04:33:30;101891.91;;;13.96;100.00
47670;BME280;33408;52.062;11.722;2023-09-07T04:36:06;101898.78;;;14.01;100.00
47670;BME280;33408;52.062;11.722;2023-09-07T04:38:33;101883.47;;;13.78;100.00
47670;BME280;33408;52.062;11.722;2023-09-07T04:41:05;101895.38;;;13.98;100.00
47670;BME280;33408;52.062;11.722;2023-09-07T04:43:32;101892.09;;;13.83;100.00
47670;BME280;33408;52.062;11.722;2023-09-07T04:45:59;101895.44;;;13.93;100.00
47670;BME280;33408;52.062;11.722;2023-09-07T04:48:26;101896.97;;;14.07;100.00
47670;BME280;33408;52.062;11.722;2023-09-07T04:50:57;101895.50;;;13.87;100.00
47670;BME280;33408;52.062;11.722;2023-09-07T04:53:24;101905.84;;;13.93;100.00
47670;BME280;33408;52.062;11.722;2023-09-07T04:55:51;101900.91;;;13.72;100.00
47670;BME280;33408;52.062;11.722;2023-09-07T04:58:17;101904.88;;;14.00;100.00
47670;BME280;33408;52.062;11.722;2023-09-07T05:00:44;101907.47;;;14.02;100.00
47670;BME280;33408;52.062;11.722;2023-09-07T05:03:10;101910.56;;;14.29;100.00
47670;BME280;33408;52.062;11.722;2023-09-07T05:05:39;101911.34;;;14.34;100.00
47670;BME280;33408;52.062;11.722;2023-09-07T05:08:05;101911.53;;;14.21;100.00
47670;BME280;33408;52.062;11.722;2023-09-07T05:10:33;101916.38;;;14.48;100.00
47670;BME280;33408;52.062;11.722;2023-09-07T05:12:59;101917.88;;;14.64;100.00
47670;BME280;33408;52.062;11.722;2023-09-07T05:15:26;101925.88;;;15.05;100.00
47670;BME280;33408;52.062;11.722;2023-09-07T05:17:53;101920.50;;;15.14;100.00
47670;BME280;33408;52.062;11.722;2023-09-07T05:20:19;101919.69;;;15.10;100.00
47670;BME280;33408;52.062;11.722;2023-09-07T05:22:48;101924.59;;;15.27;100.00
47670;BME280;33408;52.062;11.722;2023-09-07T05:25:14;101917.53;;;15.31;100.00
47670;BME280;33408;52.062;11.722;2023-09-07T05:27:43;101912.22;;;15.36;100.00
47670;BME280;33408;52.062;11.722;2023-09-07T05:30:11;101916.31;;;15.50;100.00
47670;BME280;33408;52.062;11.722;2023-09-07T05:32:37;101913.22;;;15.30;100.00
47670;BME280;33408;52.062;11.722;2023-09-07T05:35:05;101919.91;;;15.45;100.00
47670;BME280;33408;52.062;11.722;2023-09-07T05:37:32;101920.41;;;15.62;100.00
47670;BME280;33408;52.062;11.722;2023-09-07T05:40:00;101919.19;;;15.80;100.00
47670;BME280;33408;52.062;11.722;2023-09-07T05:42:26;101916.59;;;15.80;100.00
47670;BME280;33408;52.062;11.722;2023-09-07T05:44:53;101919.94;;;15.87;100.00
47670;BME280;33408;52.062;11.722;2023-09-07T05:47:19;101920.59;;;15.97;100.00
47670;BME280;33408;52.062;11.722;2023-09-07T05:49:46;101924.47;;;16.18;100.00
47670;BME280;33408;52.062;11.722;2023-09-07T05:52:12;101921.44;;;16.36;100.00
47670;BME280;33408;52.062;11.722;2023-09-07T05:54:39;101918.47;;;16.52;100.00
47670;BME280;33408;52.062;11.722;2023-09-07T05:57:07;101919.53;;;16.43;100.00
47670;BME280;33408;52.062;11.722;2023-09-07T05:59:33;101924.75;;;16.45;100.00
47670;BME280;33408;52.062;11.722;2023-09-07T06:02:00;101925.31;;;16.57;100.00
47670;BME280;33408;52.062;11.722;2023-09-07T06:04:26;101926.41;;;16.83;100.00
47670;BME280;33408;52.062;11.722;2023-09-07T06:06:53;101932.75;;;16.74;100.00
47670;BME280;33408;52.062;11.722;2023-09-07T06:09:20;101929.78;;;16.88;100.00
47670;BME280;33408;52.062;11.722;2023-09-07T06:11:46;101925.63;;;16.80;100.00
47670;BME280;33408;52.062;11.722;2023-09-07T06:14:14;101932.78;;;16.73;100.00
47670;BME280;33408;52.062;11.722;2023-09-07T06:16:41;101932.50;;;16.85;100.00
47670;BME280;33408;52.062;11.722;2023-09-07T06:19:07;101935.56;;;17.01;100.00
47670;BME280;33408;52.062;11.722;2023-09-07T06:21:34;101933.91;;;17.31;100.00
47670;BME280;33408;52.062;11.722;2023-09-07T06:24:00;101933.41;;;17.50;100.00
47670;BME280;33408;52.062;11.722;2023-09-07T06:26:27;101931.63;;;17.80;100.00
47670;BME280;33408;52.062;11.722;2023-09-07T06:28:53;101931.38;;;18.19;100.00
47670;BME280;33408;52.062;11.722;2023-09-07T06:31:21;101935.66;;;18.22;100.00
47670;BME280;33408;52.062;11.722;2023-09-07T06:33:48;101923.56;;;18.45;100.00
47670;BME280;33408;52.062;11.722;2023-09-07T06:36:14;101932.13;;;18.50;100.00
47670;BME280;33408;52.062;11.722;2023-09-07T06:38:41;101937.25;;;18.54;100.00
47670;BME280;33408;52.062;11.722;2023-09-07T06:41:08;101939.44;;;18.68;100.00
47670;BME280;33408;52.062;11.722;2023-09-07T06:43:34;101937.84;;;18.63;100.00
47670;BME280;33408;52.062;11.722;2023-09-07T06:46:03;101942.44;;;18.84;100.00
47670;BME280;33408;52.062;11.722;2023-09-07T06:48:31;101943.31;;;18.83;100.00
47670;BME280;33408;52.062;11.722;2023-09-07T06:51:01;101942.22;;;18.90;100.00
47670;BME280;33408;52.062;11.722;2023-09-07T06:53:28;101948.97;;;18.98;100.00
47670;BME280;33408;52.062;11.722;2023-09-07T06:55:57;101945.94;;;19.10;100.00
47670;BME280;33408;52.062;11.722;2023-09-07T06:58:24;101944.25;;;19.33;100.00
47670;BME280;33408;52.062;11.722;2023-09-07T07:00:50;101942.56;;;19.55;100.00
47670;BME280;33408;52.062;11.722;2023-09-07T07:03:17;101951.53;;;19.26;100.00
47670;BME280;33408;52.062;11.722;2023-09-07T07:05:45;101942.13;;;19.19;100.00
47670;BME280;33408;52.062;11.722;2023-09-07T07:08:11;101938.72;;;19.64;100.00
47670;BME280;33408;52.062;11.722;2023-09-07T07:10:38;101944.56;;;19.72;100.00
47670;BME280;33408;52.062;11.722;2023-09-07T07:13:05;101944.13;;;19.84;100.00
47670;BME280;33408;52.062;11.722;2023-09-07T07:15:31;101945.34;;;19.76;100.00
47670;BME280;33408;52.062;11.722;2023-09-07T07:17:59;101945.25;;;20.01;100.00
47670;BME280;33408;52.062;11.722;2023-09-07T07:20:25;101948.50;;;19.85;100.00
47670;BME280;33408;52.062;11.722;2023-09-07T07:22:53;101942.50;;;20.04;100.00
47670;BME280;33408;52.062;11.722;2023-09-07T07:25:20;101946.13;;;20.23;100.00
47670;BME280;33408;52.062;11.722;2023-09-07T07:27:46;101938.50;;;20.60;100.00
47670;BME280;33408;52.062;11.722;2023-09-07T07:30:13;101936.91;;;20.78;100.00
47670;BME280;33408;52.062;11.722;2023-09-07T07:32:40;101936.41;;;21.11;100.00
47670;BME280;33408;52.062;11.722;2023-09-07T07:35:07;101935.25;;;21.37;100.00
47670;BME280;33408;52.062;11.722;2023-09-07T07:37:33;101935.19;;;21.18;100.00
47670;BME280;33408;52.062;11.722;2023-09-07T07:40:02;101935.66;;;21.28;100.00
47670;BME280;33408;52.062;11.722;2023-09-07T07:42:29;101930.53;;;21.44;100.00
47670;BME280;33408;52.062;11.722;2023-09-07T07:44:57;101930.66;;;21.61;100.00
47670;BME280;33408;52.062;11.722;2023-09-07T07:47:24;101932.25;;;21.65;100.00
47670;BME280;33408;52.062;11.722;2023-09-07T07:49:51;101931.09;;;21.52;100.00
47670;BME280;33408;52.062;11.722;2023-09-07T07:52:18;101933.59;;;21.93;100.00
47670;BME280;33408;52.062;11.722;2023-09-07T07:54:44;101929.38;;;22.08;100.00
47670;BME280;33408;52.062;11.722;2023-09-07T07:57:13;101930.41;;;22.42;100.00
47670;BME280;33408;52.062;11.722;2023-09-07T07:59:39;101927.50;;;22.10;100.00
47670;BME280;33408;52.062;11.722;2023-09-07T08:02:06;101930.06;;;22.12;100.00
47670;BME280;33408;52.062;11.722;2023-09-07T08:04:32;101928.22;;;22.14;100.00
47670;BME280;33408;52.062;11.722;2023-09-07T08:07:00;101920.66;;;22.43;100.00
47670;BME280;33408;52.062;11.722;2023-09-07T08:09:29;101915.78;;;22.70;100.00
47670;BME280;33408;52.062;11.722;2023-09-07T08:11:55;101923.09;;;23.00;100.00
47670;BME280;33408;52.062;11.722;2023-09-07T08:14:24;101915.00;;;23.03;100.00
47670;BME280;33408;52.062;11.722;2023-09-07T08:16:52;101926.50;;;23.19;98.15
47670;BME280;33408;52.062;11.722;2023-09-07T08:19:19;101912.53;;;23.17;96.61
47670;BME280;33408;52.062;11.722;2023-09-07T08:21:46;101913.25;;;23.37;95.42
47670;BME280;33408;52.062;11.722;2023-09-07T08:24:13;101913.88;;;23.74;92.27
47670;BME280;33408;52.062;11.722;2023-09-07T08:26:40;101912.50;;;23.51;89.83
47670;BME280;33408;52.062;11.722;2023-09-07T08:29:08;101909.63;;;23.87;87.66
47670;BME280;33408;52.062;11.722;2023-09-07T08:31:36;101915.50;;;23.44;90.55
47670;BME280;33408;52.062;11.722;2023-09-07T08:34:05;101910.66;;;23.69;88.09
47670;BME280;33408;52.062;11.722;2023-09-07T08:36:32;101914.25;;;23.83;88.44
47670;BME280;33408;52.062;11.722;2023-09-07T08:38:59;101911.53;;;24.01;89.08
47670;BME280;33408;52.062;11.722;2023-09-07T08:41:26;101905.47;;;23.83;86.84
47670;BME280;33408;52.062;11.722;2023-09-07T08:43:54;101915.59;;;23.75;88.65
47670;BME280;33408;52.062;11.722;2023-09-07T08:46:23;101915.00;;;24.17;87.19
47670;BME280;33408;52.062;11.722;2023-09-07T08:48:51;101919.94;;;24.39;85.06
47670;BME280;33408;52.062;11.722;2023-09-07T08:51:18;101917.63;;;24.33;84.43
47670;BME280;33408;52.062;11.722;2023-09-07T08:53:45;101921.25;;;24.63;82.02
47670;BME280;33408;52.062;11.722;2023-09-07T08:56:13;101921.66;;;24.55;81.30
47670;BME280;33408;52.062;11.722;2023-09-07T08:58:39;101928.69;;;24.86;81.84
47670;BME280;33408;52.062;11.722;2023-09-07T09:01:06;101924.31;;;24.55;80.82
47670;BME280;33408;52.062;11.722;2023-09-07T09:03:33;101923.91;;;24.63;80.85
47670;BME280;33408;52.062;11.722;2023-09-07T09:06:03;101923.63;;;25.12;81.13
47670;BME280;33408;52.062;11.722;2023-09-07T09:08:29;101916.16;;;25.33;77.71
47670;BME280;33408;52.062;11.722;2023-09-07T09:10:59;101922.94;;;25.08;78.59
47670;BME280;33408;52.062;11.722;2023-09-07T09:13:28;101919.94;;;25.29;78.59
47670;BME280;33408;52.062;11.722;2023-09-07T09:15:55;101914.97;;;25.23;75.95
47670;BME280;33408;52.062;11.722;2023-09-07T09:18:22;101902.66;;;25.65;73.84
47670;BME280;33408;52.062;11.722;2023-09-07T09:20:48;101914.69;;;25.56;74.90
47670;BME280;33408;52.062;11.722;2023-09-07T09:23:17;101904.25;;;25.67;75.32
47670;BME280;33408;52.062;11.722;2023-09-07T09:25:44;101901.47;;;25.83;73.72
47670;BME280;33408;52.062;11.722;2023-09-07T09:28:10;101901.63;;;25.95;72.30
47670;BME280;33408;52.062;11.722;2023-09-07T09:30:37;101908.94;;;25.91;71.40
47670;BME280;33408;52.062;11.722;2023-09-07T09:33:05;101898.63;;;25.87;72.22
47670;BME280;33408;52.062;11.722;2023-09-07T09:35:32;101893.38;;;25.99;72.07
47670;BME280;33408;52.062;11.722;2023-09-07T09:38:01;101897.81;;;26.13;72.40
47670;BME280;33408;52.062;11.722;2023-09-07T09:40:31;101895.19;;;25.99;71.00
47670;BME280;33408;52.062;11.722;2023-09-07T09:42:59;101887.66;;;26.06;69.65
47670;BME280;33408;52.062;11.722;2023-09-07T09:45:28;101888.59;;;26.32;69.11
47670;BME280;33408;52.062;11.722;2023-09-07T09:47:55;101887.31;;;26.25;66.06
47670;BME280;33408;52.062;11.722;2023-09-07T09:50:22;101891.75;;;26.77;65.49
47670;BME280;33408;52.062;11.722;2023-09-07T09:52:50;101897.09;;;26.90;65.35
47670;BME280;33408;52.062;11.722;2023-09-07T09:55:18;101889.88;;;26.79;64.13
47670;BME280;33408;52.062;11.722;2023-09-07T09:57:46;101883.78;;;26.77;63.62
47670;BME280;33408;52.062;11.722;2023-09-07T10:00:14;101879.50;;;26.49;64.16
47670;BME280;33408;52.062;11.722;2023-09-07T10:02:57;101872.31;;;27.02;64.05
47670;BME280;33408;52.062;11.722;2023-09-07T10:05:25;101870.38;;;27.04;60.34
47670;BME280;33408;52.062;11.722;2023-09-07T10:07:52;101872.47;;;27.25;61.89
47670;BME280;33408;52.062;11.722;2023-09-07T10:10:19;101875.03;;;27.26;62.31
47670;BME280;33408;52.062;11.722;2023-09-07T10:12:53;101873.53;;;27.35;60.77
47670;BME280;33408;52.062;11.722;2023-09-07T10:15:21;101877.97;;;27.60;60.90
47670;BME280;33408;52.062;11.722;2023-09-07T10:17:47;101862.38;;;27.17;60.20
47670;BME280;33408;52.062;11.722;2023-09-07T10:20:16;101868.03;;;27.62;58.47
47670;BME280;33408;52.062;11.722;2023-09-07T10:22:43;101865.22;;;27.77;56.78
47670;BME280;33408;52.062;11.722;2023-09-07T10:25:22;101866.75;;;27.68;56.83
47670;BME280;33408;52.062;11.722;2023-09-07T10:27:49;101859.59;;;27.69;55.33
47670;BME280;33408;52.062;11.722;2023-09-07T10:30:17;101868.31;;;28.19;56.34
47670;BME280;33408;52.062;11.722;2023-09-07T10:32:49;101861.72;;;28.00;54.83
47670;BME280;33408;52.062;11.722;2023-09-07T10:35:16;101856.06;;;28.05;54.05
47670;BME280;33408;52.062;11.722;2023-09-07T10:37:45;101859.59;;;28.17;54.80
47670;BME280;33408;52.062;11.722;2023-09-07T10:40:12;101862.47;;;28.02;55.43
47670;BME280;33408;52.062;11.722;2023-09-07T10:42:44;101865.63;;;28.08;55.33
47670;BME280;33408;52.062;11.722;2023-09-07T10:45:11;101853.50;;;28.04;53.56
47670;BME280;33408;52.062;11.722;2023-09-07T10:47:43;101850.88;;;27.91;54.06
47670;BME280;33408;52.062;11.722;2023-09-07T10:50:11;101850.28;;;28.11;53.46
47670;BME280;33408;52.062;11.722;2023-09-07T10:52:39;101845.59;;;28.26;54.11
47670;BME280;33408;52.062;11.722;2023-09-07T10:55:07;101844.41;;;28.42;52.65
47670;BME280;33408;52.062;11.722;2023-09-07T10:57:41;101841.63;;;28.54;52.60
47670;BME280;33408;52.062;11.722;2023-09-07T11:00:09;101836.13;;;28.33;52.67
47670;BME280;33408;52.062;11.722;2023-09-07T11:02:36;101837.13;;;28.32;52.83
47670;BME280;33408;52.062;11.722;2023-09-07T11:05:05;101843.97;;;28.59;52.71
47670;BME280;33408;52.062;11.722;2023-09-07T11:07:31;101840.13;;;28.97;52.78
47670;BME280;33408;52.062;11.722;2023-09-07T11:09:58;101831.16;;;28.87;51.30
47670;BME280;33408;52.062;11.722;2023-09-07T11:12:25;101833.72;;;28.77;51.68
47670;BME280;33408;52.062;11.722;2023-09-07T11:14:52;101832.09;;;28.63;51.06
47670;BME280;33408;52.062;11.722;2023-09-07T11:17:25;101831.94;;;28.53;51.22
47670;BME280;33408;52.062;11.722;2023-09-07T11:19:52;101830.41;;;28.73;50.72
47670;BME280;33408;52.062;11.722;2023-09-07T11:22:20;101818.06;;;28.84;50.51
47670;BME280;33408;52.062;11.722;2023-09-07T11:24:47;101813.91;;;28.68;50.93
47670;BME280;33408;52.062;11.722;2023-09-07T11:27:17;101805.66;;;28.94;50.33
47670;BME280;33408;52.062;11.722;2023-09-07T11:29:50;101806.44;;;28.38;49.41
47670;BME280;33408;52.062;11.722;2023-09-07T11:32:17;101814.59;;;28.48;49.88
47670;BME280;33408;52.062;11.722;2023-09-07T11:34:47;101804.59;;;28.74;47.80
47670;BME280;33408;52.062;11.722;2023-09-07T11:37:16;101802.72;;;28.41;48.64
47670;BME280;33408;52.062;11.722;2023-09-07T11:39:44;101797.91;;;28.68;48.30
47670;BME280;33408;52.062;11.722;2023-09-07T11:42:10;101798.38;;;28.73;47.25
47670;BME280;33408;52.062;11.722;2023-09-07T11:44:37;101797.66;;;28.71;47.33
47670;BME280;33408;52.062;11.722;2023-09-07T11:47:04;101799.63;;;28.92;47.13
47670;BME280;33408;52.062;11.722;2023-09-07T11:49:30;101802.25;;;29.15;46.38
47670;BME280;33408;52.062;11.722;2023-09-07T11:51:57;101788.34;;;29.00;45.97
47670;BME280;33408;52.062;11.722;2023-09-07T11:54:24;101789.47;;;29.41;46.91
47670;BME280;33408;52.062;11.722;2023-09-07T11:56:51;101784.25;;;29.39;45.50
47670;BME280;33408;52.062;11.722;2023-09-07T11:59:18;101785.50;;;29.35;45.58
47670;BME280;33408;52.062;11.722;2023-09-07T12:01:45;101791.22;;;29.31;45.42
47670;BME280;33408;52.062;11.722;2023-09-07T12:04:11;101784.13;;;29.41;44.50
47670;BME280;33408;52.062;11.722;2023-09-07T12:06:38;101783.78;;;29.34;44.90
47670;BME280;33408;52.062;11.722;2023-09-07T12:09:06;101782.53;;;29.50;45.00
47670;BME280;33408;52.062;11.722;2023-09-07T12:11:34;101780.13;;;29.46;45.22
47670;BME280;33408;52.062;11.722;2023-09-07T12:14:02;101778.41;;;29.45;44.27
47670;BME280;33408;52.062;11.722;2023-09-07T12:16:29;101782.91;;;29.45;43.54
47670;BME280;33408;52.062;11.722;2023-09-07T12:18:56;101777.56;;;29.45;43.33
47670;BME280;33408;52.062;11.722;2023-09-07T12:21:23;101769.91;;;29.52;42.47
47670;BME280;33408;52.062;11.722;2023-09-07T12:23:49;101775.94;;;29.54;43.25
47670;BME280;33408;52.062;11.722;2023-09-07T12:26:16;101774.31;;;29.74;44.08
47670;BME280;33408;52.062;11.722;2023-09-07T12:28:46;101780.28;;;29.66;43.54
47670;BME280;33408;52.062;11.722;2023-09-07T12:31:14;101780.72;;;29.82;42.57
47670;BME280;33408;52.062;11.722;2023-09-07T12:33:42;101774.53;;;29.82;42.39